Terminal Aerodrome Forecast
Issued by NWS

Home | Current Version | Previous Version | Text Only | Print | Product List | Glossary On
Versions: 1 2 3 4 5 6 7 8 9 10 11 12 13 14 15 16 17 18
000
FTUS46 KMTR 252300 RRA
TAFSNS
TAF
KSNS 252357Z 2600/2624 30012G16KT P6SM SKC
     FM260200 28010KT P6SM BKN015
     FM260400 26008KT P6SM OVC010
     FM261500 23003KT P6SM OVC014
     FM261700 27004KT P6SM OVC016
     FM262000 27011KT P6SM SCT020
     FM262200 29013KT P6SM SKC=

USA.gov is the U.S. government's official web portal to all federal, state and local government web resources and services.